sensor_id;sensor_type;location;lat;lon;timestamp;temperature;humidity
48575;DHT22;34352;51.084;3.712;2022-12-18T00:31:00;-3.20;54.50
48575;DHT22;34352;51.084;3.712;2022-12-18T01:20:03;-3.40;44.80
48575;DHT22;34352;51.084;3.712;2022-12-18T01:22:36;-4.60;43.80
48575;DHT22;34352;51.084;3.712;2022-12-18T01:47:49;-3.50;49.40
48575;DHT22;34352;51.084;3.712;2022-12-18T01:50:36;-4.60;47.90
48575;DHT22;34352;51.084;3.712;2022-12-18T01:53:11;-3.60;49.40
48575;DHT22;34352;51.084;3.712;2022-12-18T02:34:33;-3.80;43.40
48575;DHT22;34352;51.084;3.712;2022-12-18T02:37:19;-5.40;38.20
48575;DHT22;34352;51.084;3.712;2022-12-18T02:47:48;-4.00;44.80
48575;DHT22;34352;51.084;3.712;2022-12-18T02:55:53;-4.00;45.60
48575;DHT22;34352;51.084;3.712;2022-12-18T03:14:13;-4.10;45.70
48575;DHT22;34352;51.084;3.712;2022-12-18T03:16:49;-2.90;44.50
48575;DHT22;34352;51.084;3.712;2022-12-18T03:27:07;-4.10;46.90
48575;DHT22;34352;51.084;3.712;2022-12-18T03:34:44;-4.10;43.70
48575;DHT22;34352;51.084;3.712;2022-12-18T03:37:13;-4.00;42.20
48575;DHT22;34352;51.084;3.712;2022-12-18T03:39:41;-4.70;38.00
48575;DHT22;34352;51.084;3.712;2022-12-18T03:42:25;-3.00;41.90
48575;DHT22;34352;51.084;3.712;2022-12-18T03:45:06;-4.20;45.20
48575;DHT22;34352;51.084;3.712;2022-12-18T03:50:34;-3.40;45.00
48575;DHT22;34352;51.084;3.712;2022-12-18T03:55:34;-4.30;51.30
48575;DHT22;34352;51.084;3.712;2022-12-18T03:58:07;-3.80;49.70
48575;DHT22;34352;51.084;3.712;2022-12-18T04:00:34;-4.90;49.80
48575;DHT22;34352;51.084;3.712;2022-12-18T04:03:03;-3.60;52.70
48575;DHT22;34352;51.084;3.712;2022-12-18T04:05:33;-3.30;52.20
48575;DHT22;34352;51.084;3.712;2022-12-18T04:08:14;-3.20;51.90
48575;DHT22;34352;51.084;3.712;2022-12-18T04:10:41;-3.90;44.30
48575;DHT22;34352;51.084;3.712;2022-12-18T04:13:10;-5.70;42.60
48575;DHT22;34352;51.084;3.712;2022-12-18T04:15:56;-3.30;40.90
48575;DHT22;34352;51.084;3.712;2022-12-18T04:18:53;-4.30;43.20
48575;DHT22;34352;51.084;3.712;2022-12-18T04:21:42;-4.40;44.70
48575;DHT22;34352;51.084;3.712;2022-12-18T04:24:18;-4.50;47.30
48575;DHT22;34352;51.084;3.712;2022-12-18T04:27:15;-4.60;48.50
48575;DHT22;34352;51.084;3.712;2022-12-18T04:29:54;-4.50;50.30
48575;DHT22;34352;51.084;3.712;2022-12-18T04:32:20;-2.80;49.00
48575;DHT22;34352;51.084;3.712;2022-12-18T04:34:57;-6.50;45.90
48575;DHT22;34352;51.084;3.712;2022-12-18T04:37:22;-4.70;49.40
48575;DHT22;34352;51.084;3.712;2022-12-18T04:39:54;-3.60;49.90
48575;DHT22;34352;51.084;3.712;2022-12-18T04:42:20;-4.60;51.80
48575;DHT22;34352;51.084;3.712;2022-12-18T04:44:52;-3.70;52.80
48575;DHT22;34352;51.084;3.712;2022-12-18T04:47:22;-4.10;53.10
48575;DHT22;34352;51.084;3.712;2022-12-18T04:49:52;-5.20;47.90
48575;DHT22;34352;51.084;3.712;2022-12-18T04:52:19;-4.60;51.20
48575;DHT22;34352;51.084;3.712;2022-12-18T04:54:48;-3.60;45.90
48575;DHT22;34352;51.084;3.712;2022-12-18T04:57:14;-4.10;45.90
48575;DHT22;34352;51.084;3.712;2022-12-18T05:00:04;-3.90;46.10
48575;DHT22;34352;51.084;3.712;2022-12-18T05:02:31;-4.30;47.90
48575;DHT22;34352;51.084;3.712;2022-12-18T05:05:19;-3.80;41.30
48575;DHT22;34352;51.084;3.712;2022-12-18T05:07:45;-5.30;45.30
48575;DHT22;34352;51.084;3.712;2022-12-18T05:10:20;-4.90;42.90
48575;DHT22;34352;51.084;3.712;2022-12-18T05:12:56;-4.30;40.60
48575;DHT22;34352;51.084;3.712;2022-12-18T05:15:29;-4.80;41.90
48575;DHT22;34352;51.084;3.712;2022-12-18T05:18:04;-5.20;44.40
48575;DHT22;34352;51.084;3.712;2022-12-18T05:20:38;-2.80;39.00
48575;DHT22;34352;51.084;3.712;2022-12-18T05:23:05;-3.20;34.30
48575;DHT22;34352;51.084;3.712;2022-12-18T05:25:37;-4.50;34.30
48575;DHT22;34352;51.084;3.712;2022-12-18T05:28:23;-3.60;33.00
48575;DHT22;34352;51.084;3.712;2022-12-18T05:30:52;-4.30;34.90
48575;DHT22;34352;51.084;3.712;2022-12-18T05:33:19;-3.00;34.70
48575;DHT22;34352;51.084;3.712;2022-12-18T05:35:52;-4.30;34.80
48575;DHT22;34352;51.084;3.712;2022-12-18T05:38:21;-4.30;35.60
48575;DHT22;34352;51.084;3.712;2022-12-18T05:46:12;-4.30;36.20
48575;DHT22;34352;51.084;3.712;2022-12-18T06:01:40;-4.30;33.90
48575;DHT22;34352;51.084;3.712;2022-12-18T06:04:06;-4.10;28.10
48575;DHT22;34352;51.084;3.712;2022-12-18T06:06:33;-4.50;25.80
48575;DHT22;34352;51.084;3.712;2022-12-18T06:08:59;-3.10;26.30
48575;DHT22;34352;51.084;3.712;2022-12-18T06:11:30;-3.00;29.30
48575;DHT22;34352;51.084;3.712;2022-12-18T06:13:59;-4.00;29.10
48575;DHT22;34352;51.084;3.712;2022-12-18T06:16:31;-3.40;29.90
48575;DHT22;34352;51.084;3.712;2022-12-18T06:18:57;-2.40;32.90
48575;DHT22;34352;51.084;3.712;2022-12-18T06:21:25;-4.10;30.00
48575;DHT22;34352;51.084;3.712;2022-12-18T06:23:54;-3.30;30.30
48575;DHT22;34352;51.084;3.712;2022-12-18T06:26:26;-4.10;27.40
48575;DHT22;34352;51.084;3.712;2022-12-18T06:28:53;-5.20;25.90
48575;DHT22;34352;51.084;3.712;2022-12-18T06:31:19;-4.70;27.50
48575;DHT22;34352;51.084;3.712;2022-12-18T06:33:49;-4.00;29.40
48575;DHT22;34352;51.084;3.712;2022-12-18T06:36:25;-4.60;29.20
48575;DHT22;34352;51.084;3.712;2022-12-18T06:38:55;-3.70;30.20
48575;DHT22;34352;51.084;3.712;2022-12-18T06:41:22;-3.70;32.30
48575;DHT22;34352;51.084;3.712;2022-12-18T06:43:50;-5.90;28.20
48575;DHT22;34352;51.084;3.712;2022-12-18T06:46:19;-4.70;29.10
48575;DHT22;34352;51.084;3.712;2022-12-18T06:48:49;-3.60;28.70
48575;DHT22;34352;51.084;3.712;2022-12-18T06:51:21;-3.10;29.30
48575;DHT22;34352;51.084;3.712;2022-12-18T06:53:53;-4.20;27.90
48575;DHT22;34352;51.084;3.712;2022-12-18T06:56:27;-2.50;26.00
48575;DHT22;34352;51.084;3.712;2022-12-18T06:59:01;-3.00;25.50
48575;DHT22;34352;51.084;3.712;2022-12-18T07:01:29;-4.40;26.30
48575;DHT22;34352;51.084;3.712;2022-12-18T07:03:57;-4.00;23.10
48575;DHT22;34352;51.084;3.712;2022-12-18T07:06:29;-3.00;21.50
48575;DHT22;34352;51.084;3.712;2022-12-18T07:09:08;-2.30;27.20
48575;DHT22;34352;51.084;3.712;2022-12-18T07:11:36;-4.70;24.20
48575;DHT22;34352;51.084;3.712;2022-12-18T07:14:03;-2.30;26.40
48575;DHT22;34352;51.084;3.712;2022-12-18T07:16:37;-2.80;24.00
48575;DHT22;34352;51.084;3.712;2022-12-18T07:19:34;-2.30;24.10
48575;DHT22;34352;51.084;3.712;2022-12-18T07:22:00;-4.40;25.60
48575;DHT22;34352;51.084;3.712;2022-12-18T07:24:26;-3.00;23.20
48575;DHT22;34352;51.084;3.712;2022-12-18T07:26:53;-3.30;26.60
48575;DHT22;34352;51.084;3.712;2022-12-18T07:29:18;-3.20;24.20
48575;DHT22;34352;51.084;3.712;2022-12-18T07:31:50;-3.10;23.90
48575;DHT22;34352;51.084;3.712;2022-12-18T07:34:23;-4.60;27.70
48575;DHT22;34352;51.084;3.712;2022-12-18T07:36:49;-4.50;31.00
48575;DHT22;34352;51.084;3.712;2022-12-18T07:39:15;-2.90;27.70
48575;DHT22;34352;51.084;3.712;2022-12-18T07:41:41;-2.00;26.80
48575;DHT22;34352;51.084;3.712;2022-12-18T07:44:11;-2.80;25.90
48575;DHT22;34352;51.084;3.712;2022-12-18T07:46:38;-3.10;30.00
48575;DHT22;34352;51.084;3.712;2022-12-18T07:49:16;-3.20;30.30
48575;DHT22;34352;51.084;3.712;2022-12-18T07:51:42;-2.90;26.70
48575;DHT22;34352;51.084;3.712;2022-12-18T07:54:09;-4.30;24.80
48575;DHT22;34352;51.084;3.712;2022-12-18T07:56:51;-4.20;24.20
48575;DHT22;34352;51.084;3.712;2022-12-18T07:59:18;-3.30;24.10
48575;DHT22;34352;51.084;3.712;2022-12-18T08:01:44;-4.50;21.60
48575;DHT22;34352;51.084;3.712;2022-12-18T08:04:10;-4.20;20.40
48575;DHT22;34352;51.084;3.712;2022-12-18T08:06:36;-4.80;20.10
48575;DHT22;34352;51.084;3.712;2022-12-18T08:09:02;-4.00;21.70
48575;DHT22;34352;51.084;3.712;2022-12-18T08:11:29;-4.40;23.40
48575;DHT22;34352;51.084;3.712;2022-12-18T08:13:56;-2.80;20.70
48575;DHT22;34352;51.084;3.712;2022-12-18T08:16:45;-4.20;23.70
48575;DHT22;34352;51.084;3.712;2022-12-18T08:19:15;-4.00;19.80
48575;DHT22;34352;51.084;3.712;2022-12-18T08:21:44;-2.60;18.00
48575;DHT22;34352;51.084;3.712;2022-12-18T09:05:37;-2.80;1.00
48575;DHT22;34352;51.084;3.712;2022-12-18T09:08:06;-1.80;1.00
48575;DHT22;34352;51.084;3.712;2022-12-18T09:10:33;-2.30;1.00
48575;DHT22;34352;51.084;3.712;2022-12-18T09:21:55;-2.80;1.00
48575;DHT22;34352;51.084;3.712;2022-12-18T18:18:37;0.80;55.20
48575;DHT22;34352;51.084;3.712;2022-12-18T18:39:28;0.70;69.40
